sensor_id;sensor_type;location;lat;lon;timestamp;P1;durP1;ratioP1;P2;durP2;ratioP2
22677;SDS011;26259;50.214;18.620;2022-11-20T00:00:36;399.17;;;164.30;;
22677;SDS011;26259;50.214;18.620;2022-11-20T00:03:01;404.23;;;168.43;;
22677;SDS011;26259;50.214;18.620;2022-11-20T00:05:27;387.77;;;163.83;;
22677;SDS011;26259;50.214;18.620;2022-11-20T00:07:53;395.93;;;171.37;;
22677;SDS011;26259;50.214;18.620;2022-11-20T00:10:18;394.43;;;167.63;;
22677;SDS011;26259;50.214;18.620;2022-11-20T00:12:44;401.50;;;172.93;;
22677;SDS011;26259;50.214;18.620;2022-11-20T00:15:09;397.80;;;167.03;;
22677;SDS011;26259;50.214;18.620;2022-11-20T00:17:35;402.63;;;170.70;;
22677;SDS011;26259;50.214;18.620;2022-11-20T00:20:00;402.37;;;162.57;;
22677;SDS011;26259;50.214;18.620;2022-11-20T00:22:26;411.10;;;174.30;;
22677;SDS011;26259;50.214;18.620;2022-11-20T00:24:52;405.27;;;172.37;;
22677;SDS011;26259;50.214;18.620;2022-11-20T00:27:17;399.50;;;168.17;;
22677;SDS011;26259;50.214;18.620;2022-11-20T00:29:43;418.70;;;171.00;;
22677;SDS011;26259;50.214;18.620;2022-11-20T00:32:08;412.33;;;170.27;;
22677;SDS011;26259;50.214;18.620;2022-11-20T00:34:34;409.97;;;166.40;;
22677;SDS011;26259;50.214;18.620;2022-11-20T00:36:59;410.33;;;170.87;;
22677;SDS011;26259;50.214;18.620;2022-11-20T00:39:25;415.10;;;172.93;;
22677;SDS011;26259;50.214;18.620;2022-11-20T00:41:50;430.97;;;177.83;;
22677;SDS011;26259;50.214;18.620;2022-11-20T00:44:16;440.73;;;182.83;;
22677;SDS011;26259;50.214;18.620;2022-11-20T00:46:42;472.50;;;191.17;;
22677;SDS011;26259;50.214;18.620;2022-11-20T00:49:07;472.93;;;189.13;;
22677;SDS011;26259;50.214;18.620;2022-11-20T00:51:33;453.67;;;181.50;;
22677;SDS011;26259;50.214;18.620;2022-11-20T00:53:59;455.47;;;182.73;;
22677;SDS011;26259;50.214;18.620;2022-11-20T00:56:26;436.87;;;178.37;;
22677;SDS011;26259;50.214;18.620;2022-11-20T00:58:52;446.17;;;178.13;;
22677;SDS011;26259;50.214;18.620;2022-11-20T01:01:19;488.27;;;198.20;;
22677;SDS011;26259;50.214;18.620;2022-11-20T01:03:48;456.63;;;188.90;;
22677;SDS011;26259;50.214;18.620;2022-11-20T01:06:16;434.20;;;177.47;;
22677;SDS011;26259;50.214;18.620;2022-11-20T01:08:53;462.77;;;183.40;;
22677;SDS011;26259;50.214;18.620;2022-11-20T01:11:23;451.97;;;179.77;;
22677;SDS011;26259;50.214;18.620;2022-11-20T01:13:53;453.87;;;180.30;;
22677;SDS011;26259;50.214;18.620;2022-11-20T01:16:22;440.57;;;178.60;;
22677;SDS011;26259;50.214;18.620;2022-11-20T01:18:53;427.93;;;176.97;;
22677;SDS011;26259;50.214;18.620;2022-11-20T01:21:22;448.67;;;175.67;;
22677;SDS011;26259;50.214;18.620;2022-11-20T01:23:48;438.03;;;171.37;;
22677;SDS011;26259;50.214;18.620;2022-11-20T01:26:16;443.60;;;175.50;;
22677;SDS011;26259;50.214;18.620;2022-11-20T01:28:43;419.10;;;174.50;;
22677;SDS011;26259;50.214;18.620;2022-11-20T01:31:16;409.73;;;168.97;;
22677;SDS011;26259;50.214;18.620;2022-11-20T01:33:47;413.87;;;168.47;;
22677;SDS011;26259;50.214;18.620;2022-11-20T01:36:14;426.93;;;169.63;;
22677;SDS011;26259;50.214;18.620;2022-11-20T01:38:40;412.93;;;176.37;;
22677;SDS011;26259;50.214;18.620;2022-11-20T01:41:07;405.97;;;166.83;;
22677;SDS011;26259;50.214;18.620;2022-11-20T01:43:33;388.87;;;161.40;;
22677;SDS011;26259;50.214;18.620;2022-11-20T01:46:04;384.30;;;161.27;;
22677;SDS011;26259;50.214;18.620;2022-11-20T01:51:24;378.47;;;160.10;;
22677;SDS011;26259;50.214;18.620;2022-11-20T01:53:57;376.87;;;157.77;;
22677;SDS011;26259;50.214;18.620;2022-11-20T01:56:25;350.90;;;150.97;;
22677;SDS011;26259;50.214;18.620;2022-11-20T01:58:53;360.47;;;153.60;;
22677;SDS011;26259;50.214;18.620;2022-11-20T02:01:21;358.60;;;154.40;;
22677;SDS011;26259;50.214;18.620;2022-11-20T02:03:47;374.50;;;155.03;;
22677;SDS011;26259;50.214;18.620;2022-11-20T02:06:17;356.77;;;151.47;;
22677;SDS011;26259;50.214;18.620;2022-11-20T02:08:48;356.00;;;146.63;;
22677;SDS011;26259;50.214;18.620;2022-11-20T02:11:14;350.03;;;144.57;;
22677;SDS011;26259;50.214;18.620;2022-11-20T02:13:39;359.27;;;148.13;;
22677;SDS011;26259;50.214;18.620;2022-11-20T02:16:13;342.23;;;145.03;;
22677;SDS011;26259;50.214;18.620;2022-11-20T02:18:45;354.53;;;145.73;;
22677;SDS011;26259;50.214;18.620;2022-11-20T02:21:20;352.87;;;145.10;;
22677;SDS011;26259;50.214;18.620;2022-11-20T02:26:16;358.27;;;144.07;;
22677;SDS011;26259;50.214;18.620;2022-11-20T02:28:43;346.73;;;139.33;;
22677;SDS011;26259;50.214;18.620;2022-11-20T02:31:09;332.83;;;143.90;;
22677;SDS011;26259;50.214;18.620;2022-11-20T02:33:35;339.93;;;146.40;;
22677;SDS011;26259;50.214;18.620;2022-11-20T02:36:00;350.70;;;148.30;;
22677;SDS011;26259;50.214;18.620;2022-11-20T02:38:26;358.77;;;152.37;;
22677;SDS011;26259;50.214;18.620;2022-11-20T02:40:51;339.10;;;145.77;;
22677;SDS011;26259;50.214;18.620;2022-11-20T02:43:17;346.93;;;143.57;;
22677;SDS011;26259;50.214;18.620;2022-11-20T02:45:43;360.87;;;149.63;;
22677;SDS011;26259;50.214;18.620;2022-11-20T02:48:08;338.80;;;145.37;;
22677;SDS011;26259;50.214;18.620;2022-11-20T02:50:36;329.03;;;139.50;;
22677;SDS011;26259;50.214;18.620;2022-11-20T02:53:02;325.13;;;140.40;;
22677;SDS011;26259;50.214;18.620;2022-11-20T02:55:28;332.87;;;139.33;;
22677;SDS011;26259;50.214;18.620;2022-11-20T02:57:53;331.73;;;143.17;;
22677;SDS011;26259;50.214;18.620;2022-11-20T03:00:19;328.13;;;136.17;;
22677;SDS011;26259;50.214;18.620;2022-11-20T03:02:45;305.90;;;133.23;;
22677;SDS011;26259;50.214;18.620;2022-11-20T03:05:11;327.23;;;138.97;;
22677;SDS011;26259;50.214;18.620;2022-11-20T03:07:36;331.83;;;138.43;;
22677;SDS011;26259;50.214;18.620;2022-11-20T03:10:02;349.30;;;145.07;;
22677;SDS011;26259;50.214;18.620;2022-11-20T03:12:29;325.43;;;138.93;;
22677;SDS011;26259;50.214;18.620;2022-11-20T03:14:54;316.17;;;138.07;;
22677;SDS011;26259;50.214;18.620;2022-11-20T03:17:20;327.03;;;142.33;;
22677;SDS011;26259;50.214;18.620;2022-11-20T03:19:45;308.97;;;139.00;;
22677;SDS011;26259;50.214;18.620;2022-11-20T03:22:11;316.63;;;135.70;;
22677;SDS011;26259;50.214;18.620;2022-11-20T03:24:36;319.73;;;137.63;;
22677;SDS011;26259;50.214;18.620;2022-11-20T03:27:02;310.90;;;136.70;;
22677;SDS011;26259;50.214;18.620;2022-11-20T03:29:28;315.67;;;135.00;;
22677;SDS011;26259;50.214;18.620;2022-11-20T03:31:53;325.97;;;141.80;;
22677;SDS011;26259;50.214;18.620;2022-11-20T03:34:19;320.20;;;138.70;;
22677;SDS011;26259;50.214;18.620;2022-11-20T03:36:44;317.00;;;134.27;;
22677;SDS011;26259;50.214;18.620;2022-11-20T03:39:10;304.53;;;129.73;;
22677;SDS011;26259;50.214;18.620;2022-11-20T03:41:36;299.17;;;131.93;;
22677;SDS011;26259;50.214;18.620;2022-11-20T03:44:05;296.30;;;124.77;;
22677;SDS011;26259;50.214;18.620;2022-11-20T03:46:31;296.63;;;125.13;;
22677;SDS011;26259;50.214;18.620;2022-11-20T03:48:57;279.03;;;122.57;;
22677;SDS011;26259;50.214;18.620;2022-11-20T03:51:23;278.33;;;121.20;;
22677;SDS011;26259;50.214;18.620;2022-11-20T03:53:55;295.63;;;124.67;;
22677;SDS011;26259;50.214;18.620;2022-11-20T03:56:24;278.93;;;122.07;;
22677;SDS011;26259;50.214;18.620;2022-11-20T03:58:51;272.60;;;122.47;;
22677;SDS011;26259;50.214;18.620;2022-11-20T04:01:17;278.50;;;121.37;;
22677;SDS011;26259;50.214;18.620;2022-11-20T04:03:44;276.27;;;121.70;;
22677;SDS011;26259;50.214;18.620;2022-11-20T04:08:38;268.00;;;119.30;;
22677;SDS011;26259;50.214;18.620;2022-11-20T04:11:08;276.13;;;121.00;;
22677;SDS011;26259;50.214;18.620;2022-11-20T04:13:40;279.43;;;118.33;;
22677;SDS011;26259;50.214;18.620;2022-11-20T04:16:07;282.27;;;125.53;;
22677;SDS011;26259;50.214;18.620;2022-11-20T04:18:33;274.77;;;122.53;;
22677;SDS011;26259;50.214;18.620;2022-11-20T04:20:59;273.10;;;117.37;;
22677;SDS011;26259;50.214;18.620;2022-11-20T04:23:25;264.07;;;118.83;;
22677;SDS011;26259;50.214;18.620;2022-11-20T04:25:52;261.07;;;114.73;;
22677;SDS011;26259;50.214;18.620;2022-11-20T04:28:17;261.77;;;118.17;;
22677;SDS011;26259;50.214;18.620;2022-11-20T04:30:43;272.97;;;121.93;;
22677;SDS011;26259;50.214;18.620;2022-11-20T04:33:09;285.73;;;124.00;;
22677;SDS011;26259;50.214;18.620;2022-11-20T04:35:35;279.47;;;122.37;;
22677;SDS011;26259;50.214;18.620;2022-11-20T04:38:02;277.43;;;123.97;;
22677;SDS011;26259;50.214;18.620;2022-11-20T04:40:28;291.17;;;127.80;;
22677;SDS011;26259;50.214;18.620;2022-11-20T04:42:54;300.30;;;127.97;;
22677;SDS011;26259;50.214;18.620;2022-11-20T04:45:20;288.23;;;122.97;;
22677;SDS011;26259;50.214;18.620;2022-11-20T04:47:47;278.53;;;123.63;;
22677;SDS011;26259;50.214;18.620;2022-11-20T04:50:12;266.50;;;116.83;;
22677;SDS011;26259;50.214;18.620;2022-11-20T04:52:38;278.23;;;116.87;;
22677;SDS011;26259;50.214;18.620;2022-11-20T04:55:04;278.00;;;121.73;;
22677;SDS011;26259;50.214;18.620;2022-11-20T04:57:30;261.63;;;116.73;;
22677;SDS011;26259;50.214;18.620;2022-11-20T04:59:55;271.67;;;117.70;;
22677;SDS011;26259;50.214;18.620;2022-11-20T05:02:21;276.60;;;119.97;;
22677;SDS011;26259;50.214;18.620;2022-11-20T05:04:47;275.13;;;120.13;;
22677;SDS011;26259;50.214;18.620;2022-11-20T05:07:12;273.73;;;118.67;;
22677;SDS011;26259;50.214;18.620;2022-11-20T05:09:38;274.43;;;119.13;;
22677;SDS011;26259;50.214;18.620;2022-11-20T05:12:04;279.03;;;119.47;;
22677;SDS011;26259;50.214;18.620;2022-11-20T05:14:29;273.67;;;117.30;;
22677;SDS011;26259;50.214;18.620;2022-11-20T05:16:55;287.20;;;121.83;;
22677;SDS011;26259;50.214;18.620;2022-11-20T05:19:20;282.77;;;124.17;;
22677;SDS011;26259;50.214;18.620;2022-11-20T05:21:46;271.57;;;122.17;;
22677;SDS011;26259;50.214;18.620;2022-11-20T05:24:12;273.20;;;121.47;;
22677;SDS011;26259;50.214;18.620;2022-11-20T05:26:37;282.77;;;120.73;;
22677;SDS011;26259;50.214;18.620;2022-11-20T05:29:03;276.67;;;121.87;;
22677;SDS011;26259;50.214;18.620;2022-11-20T05:31:29;270.33;;;115.93;;
22677;SDS011;26259;50.214;18.620;2022-11-20T05:33:55;261.73;;;118.77;;
22677;SDS011;26259;50.214;18.620;2022-11-20T05:36:21;280.43;;;123.47;;
22677;SDS011;26259;50.214;18.620;2022-11-20T05:38:47;295.17;;;124.47;;
22677;SDS011;26259;50.214;18.620;2022-11-20T05:41:14;289.13;;;124.77;;
22677;SDS011;26259;50.214;18.620;2022-11-20T05:43:41;290.47;;;124.87;;
22677;SDS011;26259;50.214;18.620;2022-11-20T05:46:08;292.50;;;125.67;;
22677;SDS011;26259;50.214;18.620;2022-11-20T05:48:37;284.13;;;125.97;;
22677;SDS011;26259;50.214;18.620;2022-11-20T05:51:06;292.13;;;124.77;;
22677;SDS011;26259;50.214;18.620;2022-11-20T05:53:33;296.20;;;125.13;;
22677;SDS011;26259;50.214;18.620;2022-11-20T05:56:00;285.30;;;124.73;;
22677;SDS011;26259;50.214;18.620;2022-11-20T05:58:27;285.23;;;126.87;;
22677;SDS011;26259;50.214;18.620;2022-11-20T06:00:54;288.40;;;124.17;;
22677;SDS011;26259;50.214;18.620;2022-11-20T06:03:27;281.40;;;119.87;;
22677;SDS011;26259;50.214;18.620;2022-11-20T06:05:53;271.73;;;119.03;;
22677;SDS011;26259;50.214;18.620;2022-11-20T06:08:18;266.13;;;117.50;;
22677;SDS011;26259;50.214;18.620;2022-11-20T06:10:44;267.67;;;115.50;;
22677;SDS011;26259;50.214;18.620;2022-11-20T06:13:09;286.73;;;124.63;;
22677;SDS011;26259;50.214;18.620;2022-11-20T06:15:35;280.57;;;126.03;;
22677;SDS011;26259;50.214;18.620;2022-11-20T06:18:00;283.33;;;127.17;;
22677;SDS011;26259;50.214;18.620;2022-11-20T06:20:26;277.63;;;119.60;;
22677;SDS011;26259;50.214;18.620;2022-11-20T06:22:52;267.80;;;116.80;;
22677;SDS011;26259;50.214;18.620;2022-11-20T06:25:17;270.73;;;116.00;;
22677;SDS011;26259;50.214;18.620;2022-11-20T06:27:43;270.23;;;115.63;;
22677;SDS011;26259;50.214;18.620;2022-11-20T06:30:08;254.80;;;114.87;;
22677;SDS011;26259;50.214;18.620;2022-11-20T06:32:34;254.30;;;114.47;;
22677;SDS011;26259;50.214;18.620;2022-11-20T06:35:00;250.83;;;111.67;;
22677;SDS011;26259;50.214;18.620;2022-11-20T06:37:25;263.50;;;113.93;;
22677;SDS011;26259;50.214;18.620;2022-11-20T06:39:51;256.47;;;116.17;;
22677;SDS011;26259;50.214;18.620;2022-11-20T06:42:17;249.90;;;113.83;;
22677;SDS011;26259;50.214;18.620;2022-11-20T06:44:42;251.30;;;114.40;;
22677;SDS011;26259;50.214;18.620;2022-11-20T06:47:08;254.37;;;114.07;;
22677;SDS011;26259;50.214;18.620;2022-11-20T06:49:33;266.57;;;115.20;;
22677;SDS011;26259;50.214;18.620;2022-11-20T06:51:59;255.83;;;111.37;;
22677;SDS011;26259;50.214;18.620;2022-11-20T06:54:25;235.53;;;112.23;;
22677;SDS011;26259;50.214;18.620;2022-11-20T06:56:50;271.47;;;119.33;;
22677;SDS011;26259;50.214;18.620;2022-11-20T06:59:16;279.77;;;128.60;;
22677;SDS011;26259;50.214;18.620;2022-11-20T07:01:41;295.43;;;130.50;;
22677;SDS011;26259;50.214;18.620;2022-11-20T07:04:07;285.77;;;128.17;;
22677;SDS011;26259;50.214;18.620;2022-11-20T07:06:32;275.57;;;124.77;;
22677;SDS011;26259;50.214;18.620;2022-11-20T07:08:58;283.17;;;128.17;;
22677;SDS011;26259;50.214;18.620;2022-11-20T07:11:24;293.07;;;132.23;;
22677;SDS011;26259;50.214;18.620;2022-11-20T07:13:49;285.27;;;131.27;;
22677;SDS011;26259;50.214;18.620;2022-11-20T07:16:15;304.83;;;137.80;;
22677;SDS011;26259;50.214;18.620;2022-11-20T07:18:41;299.60;;;137.10;;
22677;SDS011;26259;50.214;18.620;2022-11-20T07:21:07;305.97;;;140.93;;
22677;SDS011;26259;50.214;18.620;2022-11-20T07:23:35;311.37;;;146.13;;
22677;SDS011;26259;50.214;18.620;2022-11-20T07:26:08;305.70;;;143.13;;
22677;SDS011;26259;50.214;18.620;2022-11-20T07:28:35;299.90;;;144.63;;
22677;SDS011;26259;50.214;18.620;2022-11-20T07:31:01;309.33;;;144.47;;
22677;SDS011;26259;50.214;18.620;2022-11-20T07:33:26;319.93;;;148.97;;
22677;SDS011;26259;50.214;18.620;2022-11-20T07:35:52;316.27;;;154.90;;
22677;SDS011;26259;50.214;18.620;2022-11-20T07:38:17;316.43;;;156.23;;
22677;SDS011;26259;50.214;18.620;2022-11-20T07:40:43;338.03;;;161.80;;
22677;SDS011;26259;50.214;18.620;2022-11-20T07:43:09;325.07;;;160.90;;
22677;SDS011;26259;50.214;18.620;2022-11-20T07:45:34;340.93;;;166.83;;
22677;SDS011;26259;50.214;18.620;2022-11-20T07:48:00;355.83;;;169.53;;
22677;SDS011;26259;50.214;18.620;2022-11-20T07:50:25;349.23;;;163.70;;
22677;SDS011;26259;50.214;18.620;2022-11-20T07:52:51;357.27;;;176.37;;
22677;SDS011;26259;50.214;18.620;2022-11-20T07:55:17;362.67;;;178.23;;
22677;SDS011;26259;50.214;18.620;2022-11-20T07:57:43;364.93;;;182.03;;
22677;SDS011;26259;50.214;18.620;2022-11-20T08:00:09;373.03;;;181.93;;
22677;SDS011;26259;50.214;18.620;2022-11-20T08:02:39;356.93;;;174.90;;
22677;SDS011;26259;50.214;18.620;2022-11-20T08:05:05;351.03;;;170.23;;
22677;SDS011;26259;50.214;18.620;2022-11-20T08:07:36;321.30;;;158.57;;
22677;SDS011;26259;50.214;18.620;2022-11-20T08:10:06;295.47;;;151.67;;
22677;SDS011;26259;50.214;18.620;2022-11-20T08:12:33;318.30;;;151.77;;
22677;SDS011;26259;50.214;18.620;2022-11-20T08:15:18;320.93;;;150.43;;
22677;SDS011;26259;50.214;18.620;2022-11-20T08:17:43;307.33;;;153.60;;
22677;SDS011;26259;50.214;18.620;2022-11-20T08:20:09;311.93;;;159.50;;
22677;SDS011;26259;50.214;18.620;2022-11-20T08:22:35;306.17;;;152.70;;
22677;SDS011;26259;50.214;18.620;2022-11-20T08:25:01;295.50;;;152.17;;
22677;SDS011;26259;50.214;18.620;2022-11-20T08:27:26;302.70;;;152.20;;
22677;SDS011;26259;50.214;18.620;2022-11-20T08:29:52;294.43;;;148.10;;
22677;SDS011;26259;50.214;18.620;2022-11-20T08:32:18;331.70;;;178.97;;
22677;SDS011;26259;50.214;18.620;2022-11-20T08:34:43;280.47;;;143.13;;
22677;SDS011;26259;50.214;18.620;2022-11-20T08:37:09;275.70;;;140.90;;
22677;SDS011;26259;50.214;18.620;2022-11-20T08:39:34;267.47;;;135.87;;
22677;SDS011;26259;50.214;18.620;2022-11-20T08:42:00;265.20;;;139.17;;
22677;SDS011;26259;50.214;18.620;2022-11-20T08:44:25;263.70;;;136.60;;
22677;SDS011;26259;50.214;18.620;2022-11-20T08:46:51;258.33;;;134.70;;
22677;SDS011;26259;50.214;18.620;2022-11-20T08:49:17;255.37;;;132.97;;
22677;SDS011;26259;50.214;18.620;2022-11-20T08:51:43;255.70;;;133.80;;
22677;SDS011;26259;50.214;18.620;2022-11-20T08:54:08;267.70;;;135.63;;
22677;SDS011;26259;50.214;18.620;2022-11-20T08:56:34;263.80;;;140.57;;
22677;SDS011;26259;50.214;18.620;2022-11-20T08:59:00;255.13;;;135.13;;
22677;SDS011;26259;50.214;18.620;2022-11-20T09:01:26;267.00;;;135.77;;
22677;SDS011;26259;50.214;18.620;2022-11-20T09:03:54;249.50;;;131.83;;
22677;SDS011;26259;50.214;18.620;2022-11-20T09:06:21;245.63;;;130.70;;
22677;SDS011;26259;50.214;18.620;2022-11-20T09:08:47;245.70;;;127.23;;
22677;SDS011;26259;50.214;18.620;2022-11-20T09:11:16;243.67;;;128.80;;
22677;SDS011;26259;50.214;18.620;2022-11-20T09:13:42;253.30;;;131.00;;
22677;SDS011;26259;50.214;18.620;2022-11-20T09:16:08;247.30;;;130.07;;
22677;SDS011;26259;50.214;18.620;2022-11-20T09:18:34;233.17;;;125.30;;
22677;SDS011;26259;50.214;18.620;2022-11-20T09:21:09;237.27;;;121.93;;
22677;SDS011;26259;50.214;18.620;2022-11-20T09:23:35;217.13;;;113.10;;
22677;SDS011;26259;50.214;18.620;2022-11-20T09:26:03;217.50;;;112.13;;
22677;SDS011;26259;50.214;18.620;2022-11-20T09:28:30;217.47;;;115.50;;
22677;SDS011;26259;50.214;18.620;2022-11-20T09:30:56;208.63;;;113.23;;
22677;SDS011;26259;50.214;18.620;2022-11-20T09:33:21;207.60;;;113.57;;
22677;SDS011;26259;50.214;18.620;2022-11-20T09:35:47;216.13;;;111.17;;
22677;SDS011;26259;50.214;18.620;2022-11-20T09:38:12;206.43;;;107.30;;
22677;SDS011;26259;50.214;18.620;2022-11-20T09:41:27;215.10;;;113.40;;
22677;SDS011;26259;50.214;18.620;2022-11-20T09:46:24;170.50;;;89.63;;
22677;SDS011;26259;50.214;18.620;2022-11-20T09:49:17;167.17;;;89.10;;
22677;SDS011;26259;50.214;18.620;2022-11-20T09:52:04;155.27;;;84.43;;
22677;SDS011;26259;50.214;18.620;2022-11-20T09:54:47;155.60;;;82.67;;
22677;SDS011;26259;50.214;18.620;2022-11-20T09:57:18;143.63;;;80.30;;
22677;SDS011;26259;50.214;18.620;2022-11-20T09:59:49;145.33;;;79.47;;
22677;SDS011;26259;50.214;18.620;2022-11-20T10:07:47;140.53;;;75.00;;
22677;SDS011;26259;50.214;18.620;2022-11-20T10:11:10;153.30;;;79.13;;
22677;SDS011;26259;50.214;18.620;2022-11-20T10:13:29;159.77;;;85.97;;
22677;SDS011;26259;50.214;18.620;2022-11-20T10:16:15;158.93;;;81.23;;
22677;SDS011;26259;50.214;18.620;2022-11-20T10:19:04;156.33;;;83.67;;
22677;SDS011;26259;50.214;18.620;2022-11-20T10:21:54;161.63;;;85.83;;
22677;SDS011;26259;50.214;18.620;2022-11-20T10:33:27;154.93;;;80.23;;
22677;SDS011;26259;50.214;18.620;2022-11-20T10:38:09;160.80;;;86.23;;
22677;SDS011;26259;50.214;18.620;2022-11-20T10:40:43;162.63;;;82.50;;
22677;SDS011;26259;50.214;18.620;2022-11-20T10:45:47;171.60;;;102.50;;
22677;SDS011;26259;50.214;18.620;2022-11-20T10:48:33;143.07;;;74.70;;
22677;SDS011;26259;50.214;18.620;2022-11-20T10:51:33;164.10;;;80.57;;
22677;SDS011;26259;50.214;18.620;2022-11-20T10:56:33;168.13;;;79.47;;
22677;SDS011;26259;50.214;18.620;2022-11-20T11:01:40;128.30;;;65.87;;
22677;SDS011;26259;50.214;18.620;2022-11-20T11:04:14;103.03;;;55.07;;
22677;SDS011;26259;50.214;18.620;2022-11-20T11:07:09;119.70;;;59.93;;
22677;SDS011;26259;50.214;18.620;2022-11-20T11:09:44;114.40;;;60.30;;
22677;SDS011;26259;50.214;18.620;2022-11-20T11:12:17;108.00;;;55.97;;
22677;SDS011;26259;50.214;18.620;2022-11-20T11:17:18;98.30;;;52.33;;
22677;SDS011;26259;50.214;18.620;2022-11-20T11:22:24;86.00;;;46.27;;
22677;SDS011;26259;50.214;18.620;2022-11-20T11:24:53;78.90;;;40.53;;
22677;SDS011;26259;50.214;18.620;2022-11-20T11:27:19;74.07;;;41.33;;
22677;SDS011;26259;50.214;18.620;2022-11-20T11:29:45;77.37;;;42.83;;
22677;SDS011;26259;50.214;18.620;2022-11-20T11:32:12;76.83;;;42.57;;
22677;SDS011;26259;50.214;18.620;2022-11-20T11:34:57;72.83;;;41.30;;
22677;SDS011;26259;50.214;18.620;2022-11-20T11:37:24;72.00;;;39.13;;
22677;SDS011;26259;50.214;18.620;2022-11-20T11:39:57;76.40;;;41.90;;
22677;SDS011;26259;50.214;18.620;2022-11-20T11:42:23;85.20;;;45.83;;
22677;SDS011;26259;50.214;18.620;2022-11-20T11:44:49;80.33;;;42.70;;
22677;SDS011;26259;50.214;18.620;2022-11-20T11:47:31;81.13;;;42.77;;
22677;SDS011;26259;50.214;18.620;2022-11-20T11:50:01;93.37;;;49.77;;
22677;SDS011;26259;50.214;18.620;2022-11-20T11:55:58;82.40;;;46.47;;
22677;SDS011;26259;50.214;18.620;2022-11-20T11:58:12;84.43;;;46.17;;
22677;SDS011;26259;50.214;18.620;2022-11-20T12:01:10;75.40;;;39.97;;
22677;SDS011;26259;50.214;18.620;2022-11-20T12:03:50;70.97;;;38.37;;
22677;SDS011;26259;50.214;18.620;2022-11-20T12:06:39;72.77;;;39.73;;
22677;SDS011;26259;50.214;18.620;2022-11-20T12:09:09;66.77;;;39.30;;
22677;SDS011;26259;50.214;18.620;2022-11-20T12:14:17;62.53;;;35.27;;
22677;SDS011;26259;50.214;18.620;2022-11-20T12:16:56;59.37;;;32.90;;
22677;SDS011;26259;50.214;18.620;2022-11-20T12:19:29;56.93;;;31.70;;
22677;SDS011;26259;50.214;18.620;2022-11-20T12:24:52;49.93;;;28.93;;
22677;SDS011;26259;50.214;18.620;2022-11-20T12:27:43;53.53;;;30.33;;
22677;SDS011;26259;50.214;18.620;2022-11-20T12:30:33;57.10;;;31.13;;
22677;SDS011;26259;50.214;18.620;2022-11-20T12:33:18;56.17;;;32.13;;
22677;SDS011;26259;50.214;18.620;2022-11-20T12:36:07;62.33;;;32.17;;
22677;SDS011;26259;50.214;18.620;2022-11-20T12:39:02;193.10;;;76.40;;
22677;SDS011;26259;50.214;18.620;2022-11-20T12:42:05;42.87;;;23.97;;
22677;SDS011;26259;50.214;18.620;2022-11-20T12:48:09;101.83;;;44.70;;
22677;SDS011;26259;50.214;18.620;2022-11-20T13:01:45;55.93;;;31.03;;
22677;SDS011;26259;50.214;18.620;2022-11-20T13:06:44;50.70;;;28.00;;
22677;SDS011;26259;50.214;18.620;2022-11-20T13:09:14;47.90;;;25.87;;
22677;SDS011;26259;50.214;18.620;2022-11-20T13:14:24;41.23;;;23.27;;
22677;SDS011;26259;50.214;18.620;2022-11-20T13:17:01;44.40;;;22.63;;
22677;SDS011;26259;50.214;18.620;2022-11-20T13:19:55;44.87;;;23.90;;
22677;SDS011;26259;50.214;18.620;2022-11-20T13:22:27;68.87;;;38.93;;
22677;SDS011;26259;50.214;18.620;2022-11-20T13:24:54;38.20;;;20.97;;
22677;SDS011;26259;50.214;18.620;2022-11-20T13:27:21;54.33;;;30.00;;
22677;SDS011;26259;50.214;18.620;2022-11-20T13:33:06;32.47;;;18.40;;
22677;SDS011;26259;50.214;18.620;2022-11-20T13:40:31;37.33;;;22.20;;
22677;SDS011;26259;50.214;18.620;2022-11-20T13:46:06;44.27;;;24.10;;
22677;SDS011;26259;50.214;18.620;2022-11-20T13:48:34;42.03;;;24.43;;
22677;SDS011;26259;50.214;18.620;2022-11-20T13:59:53;47.73;;;25.03;;
22677;SDS011;26259;50.214;18.620;2022-11-20T14:02:25;49.90;;;27.33;;
22677;SDS011;26259;50.214;18.620;2022-11-20T14:04:52;52.13;;;28.40;;
22677;SDS011;26259;50.214;18.620;2022-11-20T14:07:23;54.47;;;29.87;;
22677;SDS011;26259;50.214;18.620;2022-11-20T14:09:57;51.70;;;28.63;;
22677;SDS011;26259;50.214;18.620;2022-11-20T14:12:27;50.37;;;28.17;;
22677;SDS011;26259;50.214;18.620;2022-11-20T14:14:54;48.83;;;27.67;;
22677;SDS011;26259;50.214;18.620;2022-11-20T14:17:21;52.17;;;29.00;;
22677;SDS011;26259;50.214;18.620;2022-11-20T14:19:50;50.10;;;29.40;;
22677;SDS011;26259;50.214;18.620;2022-11-20T14:24:48;53.67;;;30.00;;
22677;SDS011;26259;50.214;18.620;2022-11-20T14:27:18;54.90;;;30.87;;
22677;SDS011;26259;50.214;18.620;2022-11-20T14:29:45;80.43;;;42.57;;
22677;SDS011;26259;50.214;18.620;2022-11-20T14:32:20;102.27;;;49.33;;
22677;SDS011;26259;50.214;18.620;2022-11-20T14:34:49;152.10;;;68.20;;
22677;SDS011;26259;50.214;18.620;2022-11-20T14:37:22;87.90;;;46.60;;
22677;SDS011;26259;50.214;18.620;2022-11-20T14:39:51;63.30;;;36.13;;
22677;SDS011;26259;50.214;18.620;2022-11-20T14:42:29;59.63;;;34.77;;
22677;SDS011;26259;50.214;18.620;2022-11-20T14:44:56;59.20;;;33.03;;
22677;SDS011;26259;50.214;18.620;2022-11-20T14:47:24;60.33;;;33.40;;
22677;SDS011;26259;50.214;18.620;2022-11-20T14:49:52;61.53;;;33.03;;
22677;SDS011;26259;50.214;18.620;2022-11-20T14:52:28;63.87;;;34.43;;
22677;SDS011;26259;50.214;18.620;2022-11-20T14:54:56;68.07;;;36.93;;
22677;SDS011;26259;50.214;18.620;2022-11-20T14:57:34;72.37;;;35.73;;
22677;SDS011;26259;50.214;18.620;2022-11-20T15:02:43;62.77;;;35.13;;
22677;SDS011;26259;50.214;18.620;2022-11-20T15:05:13;66.40;;;35.43;;
22677;SDS011;26259;50.214;18.620;2022-11-20T15:07:40;67.17;;;36.27;;
22677;SDS011;26259;50.214;18.620;2022-11-20T15:10:11;62.80;;;36.70;;
22677;SDS011;26259;50.214;18.620;2022-11-20T15:12:57;69.70;;;37.20;;
22677;SDS011;26259;50.214;18.620;2022-11-20T15:15:35;66.23;;;36.10;;
22677;SDS011;26259;50.214;18.620;2022-11-20T15:18:14;65.80;;;35.43;;
22677;SDS011;26259;50.214;18.620;2022-11-20T15:21:02;68.73;;;33.83;;
22677;SDS011;26259;50.214;18.620;2022-11-20T15:23:31;61.00;;;35.07;;
22677;SDS011;26259;50.214;18.620;2022-11-20T15:25:56;64.43;;;33.70;;
22677;SDS011;26259;50.214;18.620;2022-11-20T15:28:26;68.03;;;33.47;;
22677;SDS011;26259;50.214;18.620;2022-11-20T15:30:53;72.13;;;40.97;;
22677;SDS011;26259;50.214;18.620;2022-11-20T15:33:20;54.27;;;28.17;;
22677;SDS011;26259;50.214;18.620;2022-11-20T15:35:46;69.60;;;38.60;;